Time;durP1;ratioP1;P1;durP2;ratioP2;P2;SDS_P1;SDS_P2;PMS_P1;PMS_P2;Temp;Humidity;BMP_temperature;BMP_pressure;BME280_temperature;BME280_humidity;BME280_pressure;Samples;Min_cycle;Max_cycle;Signal;HPM_P1;HPM_P2
2023/04/03 00:00:12;;;;;;;14.63;13.50;;;0.50;99.90;;;;;;5023350;28;20464;-71
2023/04/03 00:02:40;;;;;;;14.67;13.57;;;0.50;99.90;;;;;;5023982;28;20469;-69
2023/04/03 00:05:10;;;;;;;14.23;13.00;;;0.80;99.90;;;;;;5019874;28;20563;-70
2023/04/03 00:07:37;;;;;;;15.07;13.90;;;0.90;99.90;;;;;;5022867;28;20473;-70
2023/04/03 00:10:06;;;;;;;15.20;14.10;;;0.90;99.90;;;;;;5023689;28;20545;-70
2023/04/03 00:12:33;;;;;;;14.53;13.30;;;0.80;99.90;;;;;;5020277;28;20473;-70
2023/04/03 00:14:59;;;;;;;14.53;13.53;;;0.70;99.90;;;;;;5022714;28;20472;-72
2023/04/03 00:17:26;;;;;;;13.73;12.83;;;0.50;99.90;;;;;;5017712;28;20986;-70
2023/04/03 00:19:53;;;;;;;15.13;14.10;;;0.40;99.90;;;;;;5022631;28;20466;-71
2023/04/03 00:22:20;;;;;;;15.50;14.17;;;0.40;99.90;;;;;;5017954;28;20477;-69
2023/04/03 00:24:47;;;;;;;16.37;15.07;;;0.40;99.90;;;;;;5022577;28;20468;-70
2023/04/03 00:27:15;;;;;;;14.57;13.57;;;0.40;99.90;;;;;;5020629;28;20480;-71
2023/04/03 00:29:42;;;;;;;15.87;14.70;;;0.40;99.90;;;;;;5023829;28;20458;-70
2023/04/03 00:32:09;;;;;;;14.93;13.93;;;0.30;99.90;;;;;;5026989;28;20490;-69
2023/04/03 00:34:36;;;;;;;17.30;15.70;;;0.30;99.90;;;;;;5024337;28;20571;-70
2023/04/03 00:37:03;;;;;;;15.80;14.50;;;0.10;99.90;;;;;;5021420;28;20473;-70
2023/04/03 00:39:30;;;;;;;15.10;13.90;;;0.20;99.90;;;;;;5015924;28;20473;-71
2023/04/03 00:41:57;;;;;;;16.27;15.00;;;0.30;99.90;;;;;;5021548;28;20525;-68
2023/04/03 00:44:57;;;;;;;16.27;14.90;;;0.30;99.90;;;;;;5026115;28;20543;-71
2023/04/03 00:47:26;;;;;;;15.73;14.63;;;0.20;99.90;;;;;;5020916;28;20468;-70
2023/04/03 00:49:53;;;;;;;16.40;15.20;;;0.10;99.90;;;;;;5015018;28;20466;-69
2023/04/03 00:52:23;;;;;;;16.67;15.30;;;0.10;99.90;;;;;;5022738;28;20514;-69
2023/04/03 00:54:52;;;;;;;16.20;14.83;;;0.00;99.90;;;;;;5020042;28;20492;-69
2023/04/03 00:57:20;;;;;;;15.43;14.10;;;0.00;99.90;;;;;;5016729;28;20512;-70
2023/04/03 00:59:51;;;;;;;17.13;15.63;;;0.00;99.90;;;;;;5021872;28;20487;-69
2023/04/03 01:02:19;;;;;;;15.97;14.87;;;0.00;99.90;;;;;;5018986;28;20920;-71
2023/04/03 01:04:47;;;;;;;17.93;16.23;;;0.00;99.90;;;;;;5016823;28;20484;-71
2023/04/03 01:07:18;;;;;;;18.77;17.07;;;0.00;99.90;;;;;;5018239;28;20465;-70
2023/04/03 01:09:47;;;;;;;16.97;15.67;;;0.20;99.90;;;;;;5020981;28;20471;-70
2023/04/03 01:12:16;;;;;;;17.40;15.70;;;0.20;99.90;;;;;;5023214;28;20466;-69
2023/04/03 01:14:45;;;;;;;18.70;17.10;;;0.10;99.90;;;;;;5023508;28;20580;-69
2023/04/03 01:17:29;;;;;;;17.37;15.97;;;0.10;99.90;;;;;;5019989;28;20561;-70
2023/04/03 01:20:32;;;;;;;17.40;15.70;;;0.00;99.90;;;;;;5013413;28;20831;-70
2023/04/03 01:23:12;;;;;;;17.10;15.67;;;0.00;99.90;;;;;;5016834;28;21008;-69
2023/04/03 01:25:42;;;;;;;18.03;16.53;;;0.00;99.90;;;;;;5022836;28;20470;-71
2023/04/03 01:28:11;;;;;;;19.27;17.70;;;0.00;99.90;;;;;;5014551;28;20487;-70
2023/04/03 01:30:46;;;;;;;18.33;16.83;;;0.00;99.90;;;;;;5021894;28;20468;-70
2023/04/03 01:33:14;;;;;;;17.43;16.03;;;-0.10;99.90;;;;;;5022085;28;20507;-69
2023/04/03 01:35:41;;;;;;;19.00;17.57;;;-0.10;99.90;;;;;;5022142;28;20476;-70
2023/04/03 01:38:08;;;;;;;18.67;16.83;;;-0.10;99.90;;;;;;5020234;28;20508;-68
2023/04/03 01:40:35;;;;;;;18.67;17.13;;;-0.20;99.90;;;;;;5018414;28;20464;-70
2023/04/03 01:43:02;;;;;;;18.77;17.07;;;-0.20;99.90;;;;;;5020575;28;20496;-70
2023/04/03 01:45:29;;;;;;;19.10;17.63;;;-0.30;99.90;;;;;;5023893;28;20457;-70
2023/04/03 01:47:56;;;;;;;19.10;17.70;;;-0.30;99.90;;;;;;5022183;28;20534;-69
2023/04/03 01:50:24;;;;;;;17.83;16.40;;;-0.30;99.90;;;;;;5017490;28;20507;-70
2023/04/03 01:52:51;;;;;;;18.63;16.73;;;-0.30;99.90;;;;;;5017935;28;20479;-70
2023/04/03 01:55:18;;;;;;;18.23;16.63;;;-0.20;99.90;;;;;;5019585;28;20723;-70
2023/04/03 01:57:45;;;;;;;18.10;16.47;;;-0.20;99.90;;;;;;5023059;28;20484;-70
2023/04/03 02:00:12;;;;;;;20.90;18.27;;;-0.20;99.90;;;;;;5022523;28;20464;-69
2023/04/03 02:02:39;;;;;;;18.43;17.03;;;-0.20;99.90;;;;;;5019525;28;20620;-70
2023/04/03 02:05:07;;;;;;;20.23;18.43;;;-0.30;99.90;;;;;;5015470;28;20501;-69
2023/04/03 02:07:35;;;;;;;18.50;16.90;;;-0.30;99.90;;;;;;5021799;28;20511;-71
2023/04/03 02:10:02;;;;;;;16.93;15.63;;;-0.30;99.90;;;;;;5016473;28;20542;-71
2023/04/03 02:12:29;;;;;;;18.03;16.50;;;-0.30;99.90;;;;;;5021087;28;20460;-71
2023/04/03 02:14:56;;;;;;;17.57;16.17;;;-0.40;99.90;;;;;;5024895;28;20555;-69
2023/04/03 02:17:23;;;;;;;17.97;16.37;;;-0.40;99.90;;;;;;5020279;28;20484;-70
2023/04/03 02:19:50;;;;;;;20.00;17.17;;;-0.30;99.90;;;;;;5018670;28;20475;-71
2023/04/03 02:22:17;;;;;;;19.10;17.60;;;-0.30;99.90;;;;;;5020009;28;20479;-70
2023/04/03 02:24:45;;;;;;;19.20;17.50;;;-0.20;99.90;;;;;;5011250;28;20492;-70
2023/04/03 02:27:11;;;;;;;17.80;16.40;;;-0.20;99.90;;;;;;5020440;28;20546;-68
2023/04/03 02:29:38;;;;;;;20.10;18.30;;;-0.20;99.90;;;;;;5024143;28;20888;-69
2023/04/03 02:32:06;;;;;;;18.50;16.80;;;-0.20;99.90;;;;;;5018703;28;20472;-69
2023/04/03 02:34:33;;;;;;;18.20;16.60;;;-0.20;99.90;;;;;;5018555;28;21165;-69
2023/04/03 02:36:59;;;;;;;18.37;16.67;;;-0.10;99.90;;;;;;5017077;28;20860;-67
2023/04/03 02:39:27;;;;;;;18.13;16.63;;;0.00;99.90;;;;;;5018931;28;20458;-68
2023/04/03 02:41:55;;;;;;;18.57;17.17;;;0.10;99.90;;;;;;5021407;28;20844;-70
2023/04/03 02:44:36;;;;;;;18.47;16.70;;;0.10;99.90;;;;;;5019977;28;20839;-69
2023/04/03 02:47:03;;;;;;;18.37;16.97;;;0.20;99.90;;;;;;5016819;28;20772;-70
2023/04/03 02:49:30;;;;;;;18.60;17.10;;;0.30;99.90;;;;;;5017187;28;20536;-70
2023/04/03 02:51:58;;;;;;;17.87;16.33;;;0.40;99.90;;;;;;5017980;28;20469;-70
2023/04/03 02:54:28;;;;;;;18.80;17.00;;;0.40;99.90;;;;;;5021395;28;20929;-69
2023/04/03 02:56:56;;;;;;;19.47;17.97;;;0.40;99.90;;;;;;5018372;28;20464;-68
2023/04/03 02:59:23;;;;;;;19.30;17.70;;;0.50;99.90;;;;;;5015346;28;20477;-70
2023/04/03 03:01:50;;;;;;;18.97;17.40;;;0.40;99.90;;;;;;5017884;28;21007;-69
2023/04/03 03:04:17;;;;;;;18.57;17.10;;;0.50;99.90;;;;;;5020839;28;20467;-68
2023/04/03 03:06:46;;;;;;;17.87;16.57;;;0.50;99.90;;;;;;5021421;28;20461;-68
2023/04/03 03:09:14;;;;;;;19.20;17.70;;;0.50;99.90;;;;;;5017027;28;20748;-70
2023/04/03 03:11:41;;;;;;;17.40;16.03;;;0.50;99.90;;;;;;5022499;28;20535;-70
2023/04/03 03:14:10;;;;;;;19.30;17.63;;;0.50;99.90;;;;;;5019875;28;20485;-70
2023/04/03 03:16:37;;;;;;;22.30;17.50;;;0.50;99.90;;;;;;5025475;28;20563;-69
2023/04/03 03:19:04;;;;;;;19.43;17.73;;;0.50;99.90;;;;;;5023416;28;20472;-68
2023/04/03 03:21:31;;;;;;;18.40;16.60;;;0.60;99.90;;;;;;5025482;28;20468;-70
2023/04/03 03:23:57;;;;;;;28.17;17.70;;;0.70;99.90;;;;;;5016941;28;20955;-70
2023/04/03 03:26:24;;;;;;;18.37;16.63;;;0.70;99.90;;;;;;5015440;28;20475;-68
2023/04/03 03:28:51;;;;;;;17.30;15.90;;;0.70;99.90;;;;;;5026820;28;20568;-69
2023/04/03 03:31:19;;;;;;;19.30;17.50;;;0.70;99.90;;;;;;5019799;28;20852;-69
2023/04/03 03:33:46;;;;;;;17.80;16.00;;;0.80;99.90;;;;;;5018709;28;20553;-69
2023/04/03 03:36:13;;;;;;;19.00;17.20;;;0.80;99.90;;;;;;5025712;28;20488;-70
2023/04/03 03:38:40;;;;;;;19.37;17.47;;;0.90;99.90;;;;;;5022878;28;20464;-69
2023/04/03 03:41:07;;;;;;;19.23;17.47;;;0.90;99.90;;;;;;5020447;28;20454;-69
2023/04/03 03:43:35;;;;;;;18.13;16.30;;;0.90;99.90;;;;;;5022113;28;20472;-70
2023/04/03 03:46:01;;;;;;;17.50;15.80;;;0.90;99.90;;;;;;5019776;28;20479;-73
2023/04/03 03:48:30;;;;;;;18.73;17.07;;;0.90;99.90;;;;;;5024689;28;20464;-71
2023/04/03 03:50:56;;;;;;;18.13;16.33;;;0.90;99.90;;;;;;5025206;28;20953;-68
2023/04/03 03:53:24;;;;;;;17.30;15.90;;;0.80;99.90;;;;;;5019196;28;20472;-68
2023/04/03 03:55:51;;;;;;;19.47;17.77;;;0.90;99.90;;;;;;5019037;28;20504;-69
2023/04/03 03:58:18;;;;;;;20.13;18.33;;;0.90;99.90;;;;;;5020589;28;20885;-70
2023/04/03 04:00:46;;;;;;;19.90;18.00;;;0.90;99.90;;;;;;5024255;28;20473;-68
2023/04/03 04:03:12;;;;;;;21.03;18.10;;;0.90;99.90;;;;;;5016461;28;20467;-71
2023/04/03 04:05:41;;;;;;;18.97;17.27;;;0.80;99.90;;;;;;5024177;28;20573;-70
2023/04/03 04:08:07;;;;;;;20.53;18.53;;;0.80;99.90;;;;;;5025463;28;20460;-69
2023/04/03 04:10:34;;;;;;;19.87;18.10;;;0.80;99.90;;;;;;5019597;28;20477;-69
2023/04/03 04:13:01;;;;;;;22.63;19.23;;;0.80;99.90;;;;;;5020492;28;20984;-68
2023/04/03 04:15:28;;;;;;;18.93;17.23;;;0.80;99.90;;;;;;5022553;28;20526;-69
2023/04/03 04:17:56;;;;;;;19.80;18.00;;;0.70;99.90;;;;;;5023635;28;20461;-70
2023/04/03 04:20:24;;;;;;;19.43;17.73;;;0.80;99.90;;;;;;5027865;28;20908;-70
2023/04/03 04:22:52;;;;;;;20.23;18.10;;;0.70;99.90;;;;;;5017850;28;20871;-69
2023/04/03 04:25:19;;;;;;;20.80;18.13;;;0.70;99.90;;;;;;5020346;28;20984;-70
2023/04/03 04:27:46;;;;;;;16.20;14.50;;;0.60;99.90;;;;;;5019735;28;20457;-71
2023/04/03 04:30:14;;;;;;;14.53;13.20;;;0.50;99.90;;;;;;5023245;28;20464;-70
2023/04/03 04:32:41;;;;;;;14.73;13.07;;;0.50;99.90;;;;;;5025399;28;20465;-67
2023/04/03 04:35:08;;;;;;;16.17;14.43;;;0.50;99.90;;;;;;5025536;28;20500;-70
2023/04/03 04:37:35;;;;;;;14.03;12.80;;;0.50;99.90;;;;;;5024940;28;20894;-68
2023/04/03 04:40:03;;;;;;;23.53;14.90;;;0.40;99.90;;;;;;5023545;28;20819;-70
2023/04/03 04:42:30;;;;;;;14.57;13.37;;;0.30;99.90;;;;;;5019268;28;20580;-70
2023/04/03 04:44:57;;;;;;;15.87;14.10;;;0.30;99.90;;;;;;5022544;28;20485;-68
2023/04/03 04:47:24;;;;;;;16.67;15.07;;;0.20;99.90;;;;;;5025583;28;20464;-70
2023/04/03 04:49:51;;;;;;;14.80;13.40;;;0.20;99.90;;;;;;5022434;28;20475;-71
2023/04/03 04:52:18;;;;;;;14.73;13.50;;;0.10;99.90;;;;;;5018779;28;20484;-69
2023/04/03 04:54:46;;;;;;;13.90;12.60;;;0.00;99.90;;;;;;5023536;28;20491;-69
2023/04/03 04:57:15;;;;;;;14.30;13.10;;;0.00;99.90;;;;;;5015876;28;20556;-70
2023/04/03 04:59:42;;;;;;;18.80;13.40;;;-0.10;99.90;;;;;;5017883;28;20465;-68
2023/04/03 05:02:09;;;;;;;15.10;13.60;;;-0.20;99.90;;;;;;5025310;28;20903;-68
2023/04/03 05:04:36;;;;;;;14.07;12.73;;;-0.10;99.90;;;;;;5021635;28;20612;-67
2023/04/03 05:07:03;;;;;;;14.27;12.87;;;0.00;99.90;;;;;;5019164;28;20518;-68
2023/04/03 05:09:29;;;;;;;14.80;13.30;;;-0.10;99.90;;;;;;5022966;28;20510;-68
2023/04/03 05:11:56;;;;;;;13.57;12.27;;;0.00;99.90;;;;;;5020714;28;20851;-70
2023/04/03 05:14:25;;;;;;;12.87;11.73;;;0.00;99.90;;;;;;5016359;28;20480;-68
2023/04/03 05:16:53;;;;;;;14.20;12.17;;;0.00;99.90;;;;;;5026772;28;20860;-69
2023/04/03 05:19:21;;;;;;;14.60;13.20;;;0.10;99.90;;;;;;5023235;28;20818;-69
2023/04/03 05:21:48;;;;;;;12.90;11.80;;;0.00;99.90;;;;;;5019719;28;20464;-68
2023/04/03 05:24:17;;;;;;;13.77;11.53;;;0.00;99.90;;;;;;5019361;28;20464;-69
2023/04/03 05:26:45;;;;;;;13.10;11.60;;;0.10;99.90;;;;;;5021416;28;20468;-69
2023/04/03 05:29:12;;;;;;;14.03;12.73;;;0.20;99.90;;;;;;5014337;28;20460;-69
2023/04/03 05:31:40;;;;;;;12.93;11.53;;;0.20;99.90;;;;;;5019270;28;20472;-69
2023/04/03 05:34:07;;;;;;;14.30;12.10;;;0.30;99.90;;;;;;5024715;28;20496;-68
2023/04/03 05:36:34;;;;;;;12.67;11.37;;;0.30;99.90;;;;;;5023096;28;20496;-70
2023/04/03 05:39:00;;;;;;;15.43;12.70;;;0.30;99.90;;;;;;5020616;28;20468;-71
2023/04/03 05:41:27;;;;;;;13.33;12.00;;;0.30;99.90;;;;;;5021526;28;20481;-70
2023/04/03 05:43:54;;;;;;;14.10;12.60;;;0.40;99.90;;;;;;5021979;28;20468;-71
2023/04/03 05:46:21;;;;;;;14.97;12.20;;;0.50;99.90;;;;;;5025670;28;20464;-69
2023/04/03 05:48:51;;;;;;;10.73;9.80;;;0.50;99.90;;;;;;5021486;28;20472;-69
2023/04/03 05:51:19;;;;;;;14.67;12.27;;;0.50;99.90;;;;;;5022447;28;20890;-69
2023/04/03 05:53:48;;;;;;;15.47;11.60;;;0.60;99.90;;;;;;5022093;28;20464;-68
2023/04/03 05:56:15;;;;;;;14.60;10.93;;;0.60;99.90;;;;;;5023747;28;20502;-69
2023/04/03 05:58:42;;;;;;;12.57;11.07;;;0.70;99.90;;;;;;5027772;28;20453;-69
2023/04/03 06:01:09;;;;;;;12.93;9.77;;;0.70;99.90;;;;;;5024308;28;20456;-71
2023/04/03 06:03:36;;;;;;;11.07;10.17;;;0.70;99.90;;;;;;5020234;28;20496;-69
2023/04/03 06:06:07;;;;;;;12.40;10.27;;;0.80;99.90;;;;;;5017730;28;20467;-69
2023/04/03 06:08:35;;;;;;;12.33;11.27;;;0.80;99.90;;;;;;5019723;28;20472;-69
2023/04/03 06:11:02;;;;;;;13.80;12.40;;;0.90;99.90;;;;;;5025381;28;20982;-70
2023/04/03 06:13:29;;;;;;;17.17;12.00;;;0.90;99.90;;;;;;5020546;28;21275;-70
2023/04/03 06:15:56;;;;;;;12.60;11.30;;;1.00;99.90;;;;;;5020369;28;20587;-70
2023/04/03 06:18:23;;;;;;;14.33;11.57;;;1.00;99.90;;;;;;5016714;28;20568;-71
2023/04/03 06:20:51;;;;;;;13.10;12.00;;;1.10;99.90;;;;;;5020591;28;20837;-70
2023/04/03 06:23:19;;;;;;;13.07;12.03;;;1.10;99.90;;;;;;5021052;28;20472;-71
2023/04/03 06:25:47;;;;;;;14.63;12.73;;;1.20;99.90;;;;;;5019099;28;20469;-70
2023/04/03 06:28:14;;;;;;;15.70;13.23;;;1.30;99.90;;;;;;5021669;28;20905;-71
2023/04/03 06:30:41;;;;;;;13.60;12.30;;;1.40;99.90;;;;;;5014747;28;20476;-69
2023/04/03 06:33:09;;;;;;;13.77;12.57;;;1.40;99.90;;;;;;5025910;28;20464;-72
2023/04/03 06:35:36;;;;;;;14.33;13.33;;;1.50;99.90;;;;;;5017075;28;20500;-68
2023/04/03 06:38:07;;;;;;;14.93;13.73;;;1.60;99.90;;;;;;5022593;28;20472;-69
2023/04/03 06:40:36;;;;;;;14.37;13.20;;;1.60;99.90;;;;;;5019864;28;20464;-69
2023/04/03 06:43:03;;;;;;;14.87;13.43;;;1.70;99.90;;;;;;5016276;28;21076;-72
2023/04/03 06:45:31;;;;;;;14.10;12.93;;;1.80;99.90;;;;;;5022973;28;20499;-70
2023/04/03 06:47:57;;;;;;;14.57;13.23;;;1.80;99.90;;;;;;5021888;28;20460;-70
2023/04/03 06:50:25;;;;;;;15.00;13.60;;;1.90;99.90;;;;;;5019434;28;20894;-72
2023/04/03 06:52:51;;;;;;;16.40;14.73;;;2.00;99.90;;;;;;5021071;28;20457;-72
2023/04/03 06:55:18;;;;;;;15.87;14.37;;;2.00;99.90;;;;;;5024926;28;20497;-71
2023/04/03 06:57:47;;;;;;;15.60;14.10;;;2.00;99.90;;;;;;5022147;28;20465;-71
2023/04/03 07:00:16;;;;;;;17.10;15.17;;;2.10;99.90;;;;;;5019988;28;20469;-71
2023/04/03 07:02:43;;;;;;;16.43;15.00;;;2.10;99.90;;;;;;5020007;28;20473;-69
2023/04/03 07:05:10;;;;;;;17.37;15.70;;;2.20;99.90;;;;;;5018581;28;20910;-69
2023/04/03 07:07:37;;;;;;;19.37;17.40;;;2.20;99.90;;;;;;5022234;28;20465;-69
2023/04/03 07:10:06;;;;;;;19.57;17.77;;;2.20;99.90;;;;;;5021552;28;20466;-70
2023/04/03 07:12:32;;;;;;;19.17;17.57;;;2.30;99.90;;;;;;5018748;28;20567;-69
2023/04/03 07:15:00;;;;;;;20.10;16.77;;;2.40;99.90;;;;;;5019969;28;20530;-70
2023/04/03 07:17:27;;;;;;;20.37;18.33;;;2.50;99.90;;;;;;5021806;28;20488;-68
2023/04/03 07:19:54;;;;;;;27.13;17.90;;;2.60;99.90;;;;;;5019283;28;20475;-69
2023/04/03 07:22:21;;;;;;;18.70;17.00;;;2.60;99.90;;;;;;5022524;28;20464;-68
2023/04/03 07:24:48;;;;;;;20.07;18.57;;;2.60;99.90;;;;;;5018489;28;20544;-68
2023/04/03 07:27:14;;;;;;;19.83;18.23;;;2.70;99.90;;;;;;5007281;28;20899;-68
2023/04/03 07:29:42;;;;;;;20.13;18.30;;;2.70;99.90;;;;;;5014844;28;21073;-69
2023/04/03 07:32:11;;;;;;;18.20;16.83;;;2.80;99.90;;;;;;5016796;28;20503;-71
2023/04/03 07:34:38;;;;;;;20.57;18.97;;;2.90;99.90;;;;;;5020882;28;20937;-70
2023/04/03 07:37:06;;;;;;;20.87;18.70;;;3.20;99.90;;;;;;5019551;28;21086;-69
2023/04/03 07:39:33;;;;;;;19.43;17.80;;;3.30;99.90;;;;;;5016413;28;20469;-68
2023/04/03 07:42:00;;;;;;;20.33;18.40;;;3.40;99.90;;;;;;5018265;28;20508;-68
2023/04/03 07:44:27;;;;;;;19.70;17.97;;;3.50;99.90;;;;;;5017183;28;20465;-68
2023/04/03 07:46:54;;;;;;;19.53;18.00;;;3.60;99.90;;;;;;5022133;28;20925;-69
2023/04/03 07:49:24;;;;;;;18.80;17.40;;;3.70;99.90;;;;;;5021251;28;20461;-68
2023/04/03 07:51:51;;;;;;;23.13;18.33;;;3.70;99.90;;;;;;5019729;28;20897;-69
2023/04/03 07:54:18;;;;;;;20.20;18.33;;;3.80;99.90;;;;;;5015983;28;20560;-68
2023/04/03 07:56:44;;;;;;;18.30;17.03;;;3.80;99.90;;;;;;5016529;28;20484;-71
2023/04/03 07:59:12;;;;;;;18.33;17.10;;;3.90;99.90;;;;;;5022797;28;20933;-68
2023/04/03 08:01:38;;;;;;;18.13;16.90;;;3.90;99.90;;;;;;5018272;28;20552;-68
2023/04/03 08:04:06;;;;;;;18.93;17.37;;;4.10;99.90;;;;;;5020148;28;20555;-69
2023/04/03 08:06:36;;;;;;;17.13;15.93;;;4.10;99.90;;;;;;5022770;28;20457;-71
2023/04/03 08:09:03;;;;;;;17.37;16.37;;;4.20;99.90;;;;;;5022862;28;20472;-68
2023/04/03 08:11:30;;;;;;;18.73;17.53;;;4.40;99.90;;;;;;5026078;28;20780;-68
2023/04/03 08:13:57;;;;;;;17.27;16.03;;;4.40;99.90;;;;;;5019901;28;20461;-68
2023/04/03 08:16:26;;;;;;;18.23;16.93;;;4.40;99.90;;;;;;5021543;28;20493;-68
2023/04/03 08:18:54;;;;;;;18.33;17.10;;;4.50;99.90;;;;;;5021450;28;20472;-69
2023/04/03 08:21:21;;;;;;;19.57;17.60;;;4.60;99.90;;;;;;5021476;28;20469;-69
2023/04/03 08:23:51;;;;;;;18.27;17.10;;;4.80;99.90;;;;;;5025477;28;20452;-70
2023/04/03 08:26:21;;;;;;;19.60;17.93;;;4.80;99.90;;;;;;5020754;28;20460;-69
2023/04/03 08:28:48;;;;;;;18.53;17.07;;;5.10;99.90;;;;;;5022316;28;20468;-71
2023/04/03 08:31:18;;;;;;;17.83;16.73;;;5.30;99.90;;;;;;5022748;28;20471;-69
2023/04/03 08:33:45;;;;;;;18.23;16.70;;;5.20;99.90;;;;;;5022890;28;20527;-68
2023/04/03 08:36:23;;;;;;;18.43;17.20;;;5.50;99.90;;;;;;5024274;28;20579;-69
2023/04/03 08:38:52;;;;;;;18.80;17.60;;;5.60;99.90;;;;;;5019504;28;20464;-69
2023/04/03 08:41:31;;;;;;;18.03;17.03;;;5.50;99.90;;;;;;5025517;28;20514;-69
2023/04/03 08:44:04;;;;;;;19.23;17.73;;;5.50;99.90;;;;;;5019565;28;20469;-68
2023/04/03 08:46:43;;;;;;;18.80;17.57;;;5.70;99.90;;;;;;5019677;28;20492;-70
2023/04/03 08:49:19;;;;;;;18.30;17.00;;;5.60;99.90;;;;;;5021378;28;20460;-69
2023/04/03 08:51:49;;;;;;;18.13;16.90;;;5.90;99.90;;;;;;5023348;28;20510;-71
2023/04/03 08:54:26;;;;;;;18.07;17.07;;;6.00;99.90;;;;;;5022579;28;20495;-69
2023/04/03 08:56:53;;;;;;;18.83;17.60;;;6.20;99.90;;;;;;5022863;28;21208;-69
2023/04/03 08:59:27;;;;;;;17.67;16.67;;;6.40;99.90;;;;;;5023302;28;20472;-69
2023/04/03 09:01:55;;;;;;;18.67;17.57;;;6.60;99.90;;;;;;5016560;28;20476;-69
2023/04/03 09:04:22;;;;;;;18.50;17.20;;;6.40;99.90;;;;;;5018340;28;20564;-69
2023/04/03 09:06:53;;;;;;;17.63;16.73;;;6.60;99.90;;;;;;5021373;28;20996;-71
2023/04/03 09:09:33;;;;;;;18.33;17.13;;;6.50;99.90;;;;;;5016937;28;21414;-69
2023/04/03 09:12:12;;;;;;;18.17;17.27;;;6.80;99.90;;;;;;5023898;28;20967;-68
2023/04/03 09:14:44;;;;;;;17.87;16.97;;;6.90;99.90;;;;;;5018956;28;20610;-69
2023/04/03 09:17:16;;;;;;;18.67;17.50;;;7.00;99.90;;;;;;5020563;28;20494;-70
2023/04/03 09:19:51;;;;;;;18.27;17.20;;;7.20;99.90;;;;;;5014406;28;20460;-69
2023/04/03 09:22:21;;;;;;;18.70;17.67;;;7.40;99.90;;;;;;5020445;28;20878;-70
2023/04/03 09:24:57;;;;;;;18.57;17.57;;;8.20;99.90;;;;;;5016702;28;20469;-69
2023/04/03 09:27:24;;;;;;;18.10;17.00;;;8.70;97.80;;;;;;5022522;28;20456;-71
2023/04/03 09:29:54;;;;;;;18.53;17.40;;;9.00;96.30;;;;;;5024173;28;20548;-71
2023/04/03 09:32:27;;;;;;;20.17;18.90;;;9.20;93.60;;;;;;5021975;28;20475;-69
2023/04/03 09:34:55;;;;;;;19.37;18.30;;;9.00;90.80;;;;;;5016531;28;20483;-70
2023/04/03 09:37:40;;;;;;;20.17;19.00;;;9.30;92.80;;;;;;5017564;28;20481;-69
2023/04/03 09:40:30;;;;;;;18.43;17.43;;;9.60;92.80;;;;;;5016822;28;20472;-70
2023/04/03 09:42:59;;;;;;;18.73;17.73;;;10.10;90.40;;;;;;5020400;28;20489;-70
2023/04/03 09:45:28;;;;;;;19.00;17.80;;;10.60;89.70;;;;;;5022797;28;20543;-70
2023/04/03 09:48:07;;;;;;;18.90;17.80;;;10.60;84.70;;;;;;5022360;28;20832;-70
2023/04/03 09:50:35;;;;;;;18.30;17.30;;;10.60;82.80;;;;;;5020314;28;20493;-69
2023/04/03 09:53:08;;;;;;;19.97;18.47;;;10.50;79.20;;;;;;5018448;28;20465;-70
2023/04/03 09:55:44;;;;;;;19.00;17.90;;;10.30;74.30;;;;;;5015974;28;20840;-71
2023/04/03 09:58:27;;;;;;;18.67;17.67;;;10.10;78.20;;;;;;5020002;28;20977;-70
2023/04/03 10:00:59;;;;;;;19.00;18.00;;;10.60;79.10;;;;;;5020994;28;20856;-69
2023/04/03 10:03:30;;;;;;;18.73;17.33;;;11.20;80.60;;;;;;5021737;28;20548;-70
2023/04/03 10:05:58;;;;;;;18.37;17.27;;;11.50;74.80;;;;;;5021558;28;20468;-71
2023/04/03 10:08:29;;;;;;;17.73;16.70;;;11.60;74.20;;;;;;5018070;28;21280;-69
2023/04/03 10:11:19;;;;;;;18.77;17.47;;;11.60;73.50;;;;;;5021774;28;20456;-69
2023/04/03 10:13:55;;;;;;;18.63;17.57;;;11.30;75.80;;;;;;5009985;28;20501;-69
2023/04/03 10:16:27;;;;;;;18.80;17.60;;;11.60;70.40;;;;;;5022512;28;20468;-69
2023/04/03 10:19:05;;;;;;;18.10;16.90;;;12.40;70.80;;;;;;5019832;28;20544;-70
2023/04/03 10:21:40;;;;;;;18.23;17.13;;;12.20;67.40;;;;;;5019987;28;20960;-69
2023/04/03 10:24:13;;;;;;;18.20;17.07;;;12.10;71.00;;;;;;5013481;28;20520;-70
2023/04/03 10:26:50;;;;;;;18.43;17.40;;;11.90;69.90;;;;;;5015189;28;20528;-71
2023/04/03 10:29:27;;;;;;;19.33;18.23;;;11.60;69.20;;;;;;5015604;28;20968;-71
2023/04/03 10:32:00;;;;;;;20.23;18.67;;;11.80;67.70;;;;;;5020341;28;20469;-70
2023/04/03 10:34:32;;;;;;;19.10;18.10;;;10.80;69.60;;;;;;5018159;28;20522;-70
2023/04/03 10:37:06;;;;;;;21.00;19.90;;;10.30;70.00;;;;;;5021174;28;21096;-70
2023/04/03 10:39:38;;;;;;;20.10;18.80;;;10.60;70.00;;;;;;5019542;28;20469;-70
2023/04/03 10:42:15;;;;;;;19.47;18.07;;;10.80;67.70;;;;;;5020632;28;20480;-69
2023/04/03 10:45:07;;;;;;;19.90;18.47;;;11.00;70.40;;;;;;5018459;28;20465;-69
2023/04/03 10:47:41;;;;;;;20.20;18.90;;;11.90;70.10;;;;;;5016769;28;20457;-70
2023/04/03 10:50:26;;;;;;;18.83;17.70;;;11.70;65.70;;;;;;5019822;28;20470;-68
2023/04/03 10:53:02;;;;;;;19.57;18.37;;;11.40;69.00;;;;;;5018701;28;21018;-70
2023/04/03 10:55:36;;;;;;;19.30;17.97;;;12.10;71.20;;;;;;5019522;28;20460;-71
2023/04/03 10:58:07;;;;;;;19.10;18.10;;;12.90;68.90;;;;;;5020026;28;20495;-69
2023/04/03 11:00:39;;;;;;;18.97;18.07;;;12.70;67.10;;;;;;5022054;28;20465;-69
2023/04/03 11:03:12;;;;;;;18.47;17.47;;;13.30;63.30;;;;;;5022820;28;20518;-71
2023/04/03 11:05:44;;;;;;;19.07;17.97;;;12.90;62.50;;;;;;5015791;28;20895;-69
2023/04/03 11:08:18;;;;;;;19.23;18.13;;;12.70;61.50;;;;;;5017254;28;20469;-71
2023/04/03 11:10:47;;;;;;;18.47;17.47;;;13.20;62.00;;;;;;5019841;28;20837;-70
2023/04/03 11:13:20;;;;;;;18.43;17.53;;;13.40;58.40;;;;;;5020830;28;20468;-71
2023/04/03 11:15:47;;;;;;;19.10;18.10;;;13.40;57.50;;;;;;5023113;28;21015;-71
2023/04/03 11:18:18;;;;;;;19.60;18.50;;;13.50;57.50;;;;;;5020148;28;20846;-70
2023/04/03 11:20:54;;;;;;;19.63;18.43;;;13.30;58.00;;;;;;5016854;28;20516;-70
2023/04/03 11:23:25;;;;;;;19.37;18.17;;;13.10;55.70;;;;;;5017260;28;20479;-70
2023/04/03 11:25:55;;;;;;;19.17;18.17;;;13.80;60.80;;;;;;5016813;28;20460;-69
2023/04/03 11:28:23;;;;;;;19.20;18.20;;;14.60;56.80;;;;;;5022363;28;20469;-70
2023/04/03 11:31:00;;;;;;;19.33;18.33;;;14.80;53.40;;;;;;5021892;28;20948;-70
2023/04/03 11:33:37;;;;;;;19.13;17.97;;;14.40;53.80;;;;;;5020367;28;20464;-69
2023/04/03 11:36:09;;;;;;;18.70;17.70;;;14.40;55.40;;;;;;5020446;28;20484;-69
2023/04/03 11:38:40;;;;;;;19.80;18.63;;;14.70;53.50;;;;;;5020797;28;21041;-68
2023/04/03 11:41:10;;;;;;;19.20;17.80;;;14.70;53.60;;;;;;5017292;28;20880;-69
2023/04/03 11:43:43;;;;;;;19.33;18.20;;;15.40;56.20;;;;;;5026002;28;20467;-69
2023/04/03 11:46:11;;;;;;;18.57;17.57;;;15.90;52.50;;;;;;5025460;28;20469;-69
2023/04/03 11:48:50;;;;;;;18.70;17.70;;;15.50;52.20;;;;;;5021274;28;20467;-70
2023/04/03 11:51:52;;;;;;;19.47;18.37;;;16.00;52.70;;;;;;5015460;28;20464;-69
2023/04/03 11:54:46;;;;;;;18.87;17.97;;;15.40;49.70;;;;;;5021445;28;20460;-69
2023/04/03 11:57:45;;;;;;;18.27;17.27;;;15.10;51.60;;;;;;5021249;28;20567;-70
2023/04/03 12:01:04;;;;;;;18.40;17.20;;;14.40;53.00;;;;;;5016795;28;20490;-71
2023/04/03 12:03:51;;;;;;;18.97;17.87;;;16.10;54.40;;;;;;5021117;28;20444;-70
2023/04/03 12:06:49;;;;;;;18.93;17.93;;;17.30;52.10;;;;;;5024320;28;20979;-71
2023/04/03 12:09:26;;;;;;;18.60;17.60;;;17.30;48.50;;;;;;5018186;28;20468;-71
2023/04/03 12:11:53;;;;;;;18.27;17.27;;;16.90;45.80;;;;;;5015528;28;20491;-70
2023/04/03 12:14:24;;;;;;;18.97;17.97;;;15.70;45.80;;;;;;5024147;28;20456;-72
2023/04/03 12:16:52;;;;;;;19.20;18.20;;;16.00;47.10;;;;;;5023021;28;20481;-70
2023/04/03 12:19:33;;;;;;;19.07;18.17;;;16.30;47.90;;;;;;5023562;28;20854;-69
2023/04/03 12:22:19;;;;;;;18.40;17.50;;;15.10;45.00;;;;;;5023142;28;20530;-70
2023/04/03 12:24:48;;;;;;;18.50;17.40;;;15.90;47.60;;;;;;5015137;28;20461;-71
2023/04/03 12:27:25;;;;;;;18.43;17.53;;;16.20;46.40;;;;;;5019212;28;20472;-72
2023/04/03 12:29:58;;;;;;;19.00;18.00;;;17.00;47.00;;;;;;5020670;28;20794;-72
2023/04/03 12:32:46;;;;;;;19.30;17.93;;;16.60;44.40;;;;;;5021598;28;20466;-72
2023/04/03 12:35:25;;;;;;;18.30;17.40;;;15.80;43.20;;;;;;5018921;28;20817;-72
2023/04/03 12:38:36;;;;;;;18.60;17.60;;;15.80;45.20;;;;;;5023617;28;20489;-72
2023/04/03 12:41:28;;;;;;;19.13;17.83;;;15.00;43.60;;;;;;5004477;28;20982;-70
2023/04/03 12:44:27;;;;;;;19.07;17.97;;;14.90;44.40;;;;;;5015048;28;20468;-70
2023/04/03 12:46:54;;;;;;;18.70;17.70;;;14.80;43.60;;;;;;5022612;28;21153;-73
2023/04/03 12:49:35;;;;;;;19.10;18.00;;;14.90;44.40;;;;;;5024871;28;20460;-70